Time;durP1;ratioP1;P1;durP2;ratioP2;P2;SDS_P1;SDS_P2;PMS_P1;PMS_P2;Temp;Humidity;BMP_temperature;BMP_pressure;BME280_temperature;BME280_humidity;BME280_pressure;Samples;Min_cycle;Max_cycle;Signal;HPM_P1;HPM_P2
2022/07/27 00:01:40;;;;;;;2.90;1.30;;;14.30;99.90;;;;;;5091898;27;20226;-44
2022/07/27 00:04:07;;;;;;;7.07;1.30;;;14.30;99.90;;;;;;5106474;27;20212;-42
2022/07/27 00:06:33;;;;;;;3.47;0.90;;;14.40;99.90;;;;;;5109243;27;20217;-43
2022/07/27 00:09:01;;;;;;;5.37;1.53;;;14.40;99.90;;;;;;5102586;27;20197;-42
2022/07/27 00:11:28;;;;;;;4.07;1.17;;;14.40;99.90;;;;;;5102917;27;20557;-43
2022/07/27 00:13:55;;;;;;;5.83;1.10;;;14.40;99.90;;;;;;5101496;27;20293;-43
2022/07/27 00:16:22;;;;;;;7.13;0.90;;;14.40;99.90;;;;;;5104529;28;20304;-43
2022/07/27 00:18:49;;;;;;;4.73;1.50;;;14.40;99.90;;;;;;5097603;27;20196;-44
2022/07/27 00:21:16;;;;;;;8.67;1.17;;;14.30;99.90;;;;;;5109638;27;20212;-48
2022/07/27 00:23:42;;;;;;;4.00;1.43;;;14.30;99.90;;;;;;5110888;27;20833;-43
2022/07/27 00:26:11;;;;;;;3.60;1.13;;;14.30;99.90;;;;;;5113372;27;20221;-44
2022/07/27 00:28:38;;;;;;;5.30;1.17;;;14.30;99.90;;;;;;5101299;27;20776;-43
2022/07/27 00:31:04;;;;;;;3.93;1.20;;;14.20;99.90;;;;;;5103610;27;20205;-44
2022/07/27 00:33:31;;;;;;;3.23;1.03;;;14.30;99.90;;;;;;5096185;27;20203;-43
2022/07/27 00:35:58;;;;;;;3.83;1.07;;;14.20;99.90;;;;;;5107879;27;20196;-43
2022/07/27 00:38:25;;;;;;;4.30;1.50;;;14.20;99.90;;;;;;5109966;27;20197;-43
2022/07/27 00:40:52;;;;;;;1.63;1.00;;;14.30;99.90;;;;;;5100764;28;20197;-42
2022/07/27 00:43:22;;;;;;;4.60;0.93;;;14.30;99.90;;;;;;5103614;28;20211;-43
2022/07/27 00:45:49;;;;;;;6.13;1.33;;;14.30;99.90;;;;;;5100237;28;20219;-43
2022/07/27 00:48:16;;;;;;;4.83;0.90;;;14.30;99.90;;;;;;5103936;28;20224;-42
2022/07/27 00:50:45;;;;;;;4.67;0.97;;;14.30;99.90;;;;;;5089784;28;20212;-42
2022/07/27 00:53:13;;;;;;;2.50;1.20;;;14.40;99.90;;;;;;5114424;27;20193;-42
2022/07/27 00:55:40;;;;;;;2.37;0.97;;;14.40;99.90;;;;;;5104957;28;20189;-42
2022/07/27 00:58:08;;;;;;;2.97;1.20;;;14.30;99.90;;;;;;5110797;28;20223;-43
2022/07/27 01:00:37;;;;;;;3.27;0.97;;;14.30;99.90;;;;;;5120486;28;20211;-45
2022/07/27 01:03:04;;;;;;;2.37;1.10;;;14.30;99.90;;;;;;5123491;28;20196;-41
2022/07/27 01:05:31;;;;;;;6.17;1.10;;;14.30;99.90;;;;;;5099567;28;20266;-45
2022/07/27 01:07:58;;;;;;;6.63;2.00;;;14.30;99.90;;;;;;5110094;28;20228;-45
2022/07/27 01:10:26;;;;;;;3.37;1.00;;;14.30;99.90;;;;;;5102696;28;20198;-47
2022/07/27 01:12:52;;;;;;;4.60;1.07;;;14.30;99.90;;;;;;5100863;28;20266;-42
2022/07/27 01:15:20;;;;;;;2.83;0.90;;;14.40;99.90;;;;;;5103559;28;20875;-44
2022/07/27 01:17:48;;;;;;;5.37;1.00;;;14.30;99.90;;;;;;5102201;28;20998;-43
2022/07/27 01:20:15;;;;;;;4.77;1.20;;;14.30;99.90;;;;;;5105195;28;20197;-42
2022/07/27 01:22:43;;;;;;;3.73;0.83;;;14.30;99.90;;;;;;5094122;27;20198;-42
2022/07/27 01:25:10;;;;;;;2.93;1.20;;;14.30;99.90;;;;;;5116441;27;20217;-42
2022/07/27 01:27:37;;;;;;;4.97;1.07;;;14.30;99.90;;;;;;5104619;27;20252;-45
2022/07/27 01:30:25;;;;;;;3.73;1.03;;;14.20;99.90;;;;;;5107554;27;20197;-44
2022/07/27 01:32:52;;;;;;;5.13;0.90;;;14.20;99.90;;;;;;5105098;27;20193;-45
2022/07/27 01:35:19;;;;;;;4.63;1.10;;;14.20;99.90;;;;;;5106896;27;20201;-43
2022/07/27 01:37:47;;;;;;;5.00;1.20;;;14.20;99.90;;;;;;5093097;27;20883;-43
2022/07/27 01:40:14;;;;;;;3.03;1.00;;;14.30;99.90;;;;;;5113267;27;20189;-43
2022/07/27 01:42:41;;;;;;;3.30;1.00;;;14.30;99.90;;;;;;5103039;27;20208;-43
2022/07/27 01:45:09;;;;;;;5.40;1.43;;;14.30;99.90;;;;;;5106936;27;20228;-42
2022/07/27 01:47:36;;;;;;;3.50;1.23;;;14.30;99.90;;;;;;5103361;27;20244;-43
2022/07/27 01:50:04;;;;;;;6.27;1.30;;;14.20;99.90;;;;;;5107288;27;20193;-43
2022/07/27 01:52:31;;;;;;;6.00;0.93;;;14.20;99.90;;;;;;5093313;27;20206;-43
2022/07/27 01:54:59;;;;;;;1.93;0.80;;;14.20;99.90;;;;;;5115086;27;20193;-43
2022/07/27 01:57:26;;;;;;;5.50;0.87;;;14.20;99.90;;;;;;5112473;27;20224;-45
2022/07/27 01:59:53;;;;;;;6.80;1.70;;;14.20;99.90;;;;;;5104847;27;20301;-44
2022/07/27 02:02:20;;;;;;;1.93;0.97;;;14.20;99.90;;;;;;5106654;27;20284;-43
2022/07/27 02:04:47;;;;;;;5.23;0.83;;;14.10;99.90;;;;;;5102992;27;20217;-42
2022/07/27 02:07:14;;;;;;;4.37;1.00;;;14.10;99.90;;;;;;5106868;27;20216;-45
2022/07/27 02:09:44;;;;;;;3.30;0.90;;;14.10;99.90;;;;;;5097101;27;20903;-43
2022/07/27 02:14:57;;;;;;;1.57;1.10;;;14.00;99.90;;;;;;5104837;28;20925;-41
2022/07/27 02:17:24;;;;;;;2.90;0.70;;;14.00;99.90;;;;;;5105717;27;20225;-42
2022/07/27 02:19:51;;;;;;;2.73;1.00;;;14.00;99.90;;;;;;5103963;28;20347;-44
2022/07/27 02:22:18;;;;;;;5.93;1.40;;;14.00;99.90;;;;;;5106674;27;20210;-44
2022/07/27 02:24:45;;;;;;;1.77;0.60;;;14.00;99.90;;;;;;5094989;27;20201;-43
2022/07/27 02:27:13;;;;;;;4.70;0.87;;;14.00;99.90;;;;;;5112488;27;20227;-43
2022/07/27 02:29:40;;;;;;;3.23;1.23;;;14.10;99.90;;;;;;5103704;27;20195;-43
2022/07/27 02:32:06;;;;;;;6.43;1.20;;;14.10;99.90;;;;;;5106252;27;20205;-45
2022/07/27 02:34:33;;;;;;;2.63;0.77;;;14.10;99.90;;;;;;5102960;27;20204;-42
2022/07/27 02:37:01;;;;;;;5.07;1.00;;;14.10;99.90;;;;;;5105567;27;20217;-43
2022/07/27 02:39:28;;;;;;;3.73;1.17;;;14.10;99.90;;;;;;5098953;27;20242;-43
2022/07/27 02:41:55;;;;;;;4.53;1.30;;;14.10;99.90;;;;;;5107771;27;20205;-43
2022/07/27 02:44:23;;;;;;;4.27;0.93;;;14.10;99.90;;;;;;5109893;27;20207;-42
2022/07/27 02:46:50;;;;;;;5.23;1.30;;;14.10;99.90;;;;;;5103169;28;20221;-43
2022/07/27 02:49:17;;;;;;;6.50;1.30;;;14.10;99.90;;;;;;5106192;27;20285;-44
2022/07/27 02:51:44;;;;;;;2.70;0.80;;;14.10;99.90;;;;;;5102323;27;20185;-43
2022/07/27 02:54:11;;;;;;;4.90;0.90;;;14.10;99.90;;;;;;5111896;27;20200;-46
2022/07/27 02:56:38;;;;;;;8.33;0.90;;;14.10;99.90;;;;;;5101666;27;20225;-42
2022/07/27 02:59:05;;;;;;;4.00;1.20;;;14.10;99.90;;;;;;5109359;27;20682;-43
2022/07/27 03:01:33;;;;;;;5.00;1.00;;;14.10;99.90;;;;;;5103115;27;20205;-41
2022/07/27 03:04:00;;;;;;;3.73;1.00;;;14.10;99.90;;;;;;5104694;27;20692;-44
2022/07/27 03:06:26;;;;;;;2.37;0.87;;;14.00;99.90;;;;;;5104156;27;20627;-45
2022/07/27 03:08:53;;;;;;;5.87;1.17;;;14.10;99.90;;;;;;5103464;28;20197;-43
2022/07/27 03:11:20;;;;;;;4.53;1.13;;;14.10;99.90;;;;;;5095883;27;20288;-47
2022/07/27 03:13:47;;;;;;;3.30;0.90;;;14.00;99.90;;;;;;5107811;27;20186;-42
2022/07/27 03:16:14;;;;;;;6.13;1.10;;;14.00;99.90;;;;;;5105594;28;20231;-42
2022/07/27 03:18:42;;;;;;;6.20;1.30;;;14.00;99.90;;;;;;5101624;27;20201;-42
2022/07/27 03:21:10;;;;;;;1.80;1.10;;;14.00;99.90;;;;;;5104444;27;20200;-42
2022/07/27 03:23:37;;;;;;;3.73;1.20;;;14.00;99.90;;;;;;5113174;27;20228;-44
2022/07/27 03:26:03;;;;;;;5.17;1.83;;;14.00;99.90;;;;;;5102932;27;20209;-46
2022/07/27 03:28:30;;;;;;;6.43;1.00;;;14.00;99.90;;;;;;5112006;27;20197;-45
2022/07/27 03:30:58;;;;;;;2.23;1.03;;;14.00;99.90;;;;;;5106027;27;20197;-45
2022/07/27 03:33:24;;;;;;;4.87;1.20;;;14.00;99.90;;;;;;5103499;27;20201;-43
2022/07/27 03:35:53;;;;;;;5.83;1.97;;;13.90;99.90;;;;;;5102701;27;20185;-42
2022/07/27 03:38:19;;;;;;;6.63;1.40;;;13.90;99.90;;;;;;5105133;27;20220;-45
2022/07/27 03:40:47;;;;;;;4.40;1.40;;;13.90;99.90;;;;;;5101587;27;20232;-44
2022/07/27 03:43:14;;;;;;;4.87;2.07;;;13.80;99.90;;;;;;5095738;27;20604;-43
2022/07/27 03:45:40;;;;;;;9.30;1.80;;;13.80;99.90;;;;;;5105798;27;20220;-44
2022/07/27 03:48:07;;;;;;;4.13;1.83;;;13.80;99.90;;;;;;5104982;27;20216;-42
2022/07/27 03:50:35;;;;;;;4.23;1.27;;;13.80;99.90;;;;;;5101620;27;20242;-43
2022/07/27 03:53:03;;;;;;;3.00;1.30;;;13.80;99.90;;;;;;5106515;27;20201;-42
2022/07/27 03:55:30;;;;;;;3.10;1.00;;;13.70;99.90;;;;;;5117172;27;20272;-45
2022/07/27 03:57:57;;;;;;;5.33;1.20;;;13.70;99.90;;;;;;5094092;27;20534;-44
2022/07/27 04:00:24;;;;;;;4.63;2.13;;;13.70;99.90;;;;;;5106614;27;20211;-43
2022/07/27 04:02:51;;;;;;;6.17;1.80;;;13.70;99.90;;;;;;5107832;27;20208;-44
2022/07/27 04:05:19;;;;;;;4.93;2.00;;;13.70;99.90;;;;;;5106752;27;20201;-43
2022/07/27 04:07:46;;;;;;;5.70;1.40;;;13.70;99.90;;;;;;5100598;27;20236;-42
2022/07/27 04:10:14;;;;;;;5.17;1.90;;;13.70;99.90;;;;;;5119394;27;20196;-43
2022/07/27 04:12:41;;;;;;;1.90;1.20;;;13.70;99.90;;;;;;5120954;27;20196;-44
2022/07/27 04:15:08;;;;;;;3.97;1.30;;;13.80;99.90;;;;;;5100084;27;20204;-46
2022/07/27 04:17:36;;;;;;;4.10;1.07;;;13.80;99.90;;;;;;5105437;27;20205;-45
2022/07/27 04:20:03;;;;;;;6.17;1.40;;;13.80;99.90;;;;;;5108026;27;20669;-43
2022/07/27 04:22:29;;;;;;;6.43;1.53;;;13.80;99.90;;;;;;5107233;27;20688;-42
2022/07/27 04:24:57;;;;;;;6.00;2.03;;;13.80;99.90;;;;;;5110919;27;20236;-45
2022/07/27 04:27:25;;;;;;;4.93;1.27;;;13.90;99.90;;;;;;5106989;27;20232;-44
2022/07/27 04:29:52;;;;;;;4.23;1.33;;;13.80;99.90;;;;;;5093346;27;20205;-43
2022/07/27 04:32:19;;;;;;;6.00;1.43;;;13.80;99.90;;;;;;5111531;27;20241;-43
2022/07/27 04:34:46;;;;;;;2.90;0.97;;;13.90;99.90;;;;;;5101896;27;20193;-43
2022/07/27 04:37:13;;;;;;;4.87;1.40;;;13.80;99.90;;;;;;5103775;28;20314;-45
2022/07/27 04:39:39;;;;;;;3.00;1.20;;;13.90;99.90;;;;;;5100085;27;20897;-42
2022/07/27 04:42:07;;;;;;;4.07;2.27;;;13.80;99.90;;;;;;5109015;27;20205;-44
2022/07/27 04:44:35;;;;;;;5.03;2.10;;;13.80;99.90;;;;;;5094603;28;20219;-44
2022/07/27 04:47:02;;;;;;;3.23;1.20;;;13.80;99.90;;;;;;5114810;28;20213;-43
2022/07/27 04:49:29;;;;;;;5.30;1.77;;;13.90;99.90;;;;;;5093318;28;20204;-42
2022/07/27 04:51:56;;;;;;;5.83;1.73;;;13.90;99.90;;;;;;5112612;28;20232;-42
2022/07/27 04:54:23;;;;;;;3.53;1.40;;;13.90;99.90;;;;;;5107579;28;20235;-46
2022/07/27 04:56:50;;;;;;;5.00;1.07;;;13.90;99.90;;;;;;5112595;27;20217;-43
2022/07/27 04:59:17;;;;;;;2.97;1.13;;;13.90;99.90;;;;;;5109470;27;20200;-44
2022/07/27 05:01:45;;;;;;;7.73;1.10;;;13.90;99.90;;;;;;5105574;27;20201;-43
2022/07/27 05:04:12;;;;;;;3.33;1.17;;;13.90;99.90;;;;;;5112947;27;20197;-45
2022/07/27 05:06:39;;;;;;;5.17;1.13;;;13.90;99.90;;;;;;5107915;27;20418;-42
2022/07/27 05:09:06;;;;;;;6.43;1.40;;;14.00;99.90;;;;;;5127843;27;20196;-44
2022/07/27 05:11:33;;;;;;;4.67;0.90;;;14.00;99.90;;;;;;5114582;27;20201;-44
2022/07/27 05:14:01;;;;;;;2.80;1.03;;;14.00;99.90;;;;;;5126783;27;20204;-42
2022/07/27 05:16:28;;;;;;;4.80;1.10;;;14.00;99.90;;;;;;5108934;27;20252;-43
2022/07/27 05:18:56;;;;;;;4.97;0.90;;;14.10;99.90;;;;;;5118675;27;20204;-45
2022/07/27 05:21:23;;;;;;;3.83;1.20;;;14.10;99.90;;;;;;5111691;27;20196;-44
2022/07/27 05:23:50;;;;;;;3.43;0.93;;;14.10;99.90;;;;;;5112932;27;20675;-43
2022/07/27 05:26:17;;;;;;;6.33;1.10;;;14.20;99.90;;;;;;5111090;27;20221;-50
2022/07/27 05:28:44;;;;;;;4.50;1.00;;;14.20;99.90;;;;;;5118024;27;20891;-43
2022/07/27 05:31:11;;;;;;;3.10;1.10;;;14.30;99.90;;;;;;5116533;27;20250;-44
2022/07/27 05:33:38;;;;;;;2.20;0.80;;;14.30;99.90;;;;;;5096422;27;20881;-43
2022/07/27 05:36:06;;;;;;;3.17;0.80;;;14.30;99.90;;;;;;5107749;27;20661;-43
2022/07/27 05:38:38;;;;;;;5.20;1.30;;;14.30;99.90;;;;;;5114088;27;20919;-48
2022/07/27 05:41:05;;;;;;;5.53;1.10;;;14.40;99.90;;;;;;5109756;27;20726;-43
2022/07/27 05:43:32;;;;;;;3.83;0.97;;;14.40;99.90;;;;;;5106025;27;20276;-46
2022/07/27 05:45:59;;;;;;;3.97;1.30;;;14.40;99.90;;;;;;5098498;27;20217;-45
2022/07/27 05:48:26;;;;;;;4.40;1.27;;;14.50;99.90;;;;;;5093280;27;20569;-44
2022/07/27 05:50:52;;;;;;;3.57;1.10;;;14.50;99.90;;;;;;5108031;27;20201;-43
2022/07/27 05:53:21;;;;;;;2.60;1.00;;;14.50;99.90;;;;;;5107497;27;20641;-44
2022/07/27 05:55:48;;;;;;;2.60;1.00;;;14.50;99.90;;;;;;5111898;27;20196;-44
2022/07/27 05:58:14;;;;;;;4.17;0.73;;;14.50;99.90;;;;;;5104887;27;20216;-49
2022/07/27 06:00:42;;;;;;;3.80;1.30;;;14.50;99.90;;;;;;5117321;27;20204;-46
2022/07/27 06:03:09;;;;;;;4.67;1.33;;;14.50;99.90;;;;;;5107069;27;20196;-49
2022/07/27 06:05:35;;;;;;;2.93;1.00;;;14.50;99.90;;;;;;5108073;27;20200;-44
2022/07/27 06:08:05;;;;;;;4.00;1.00;;;14.50;99.90;;;;;;5104219;27;20231;-45
2022/07/27 06:10:34;;;;;;;3.20;1.10;;;14.50;99.90;;;;;;5118464;27;20193;-43
2022/07/27 06:13:02;;;;;;;7.20;1.03;;;14.50;99.90;;;;;;5111631;27;20199;-47
2022/07/27 06:15:29;;;;;;;3.13;1.20;;;14.50;99.90;;;;;;5116183;27;20277;-45
2022/07/27 06:17:56;;;;;;;5.97;1.57;;;14.40;99.90;;;;;;5099305;27;20221;-41
2022/07/27 06:20:24;;;;;;;4.00;1.20;;;14.40;99.90;;;;;;5109842;27;20201;-44
2022/07/27 06:22:52;;;;;;;6.07;1.20;;;14.40;99.90;;;;;;5097774;27;20211;-47
2022/07/27 06:25:20;;;;;;;7.67;1.40;;;14.40;99.90;;;;;;5109074;27;20197;-43
2022/07/27 06:27:49;;;;;;;5.67;1.47;;;14.40;99.90;;;;;;5113514;27;20251;-43
2022/07/27 06:30:17;;;;;;;5.67;1.10;;;14.50;99.90;;;;;;5095057;27;20197;-44
2022/07/27 06:32:44;;;;;;;4.27;1.00;;;14.60;99.90;;;;;;5099177;27;20422;-42
2022/07/27 06:35:12;;;;;;;4.70;1.20;;;14.60;99.90;;;;;;5102863;27;20277;-47
2022/07/27 06:37:42;;;;;;;4.90;1.23;;;14.70;99.90;;;;;;5108343;27;20850;-42
2022/07/27 06:40:12;;;;;;;2.10;1.20;;;14.70;99.90;;;;;;5116173;27;20254;-44
2022/07/27 06:42:38;;;;;;;2.57;1.10;;;14.80;99.90;;;;;;5097894;27;20285;-43
2022/07/27 06:45:09;;;;;;;3.50;0.90;;;14.90;99.90;;;;;;5108656;27;20196;-45
2022/07/27 06:47:38;;;;;;;2.83;0.93;;;15.00;99.90;;;;;;5105494;27;20239;-44
2022/07/27 06:50:06;;;;;;;5.47;1.90;;;15.00;99.90;;;;;;5096775;27;20300;-43
2022/07/27 06:52:32;;;;;;;4.60;1.20;;;15.10;99.90;;;;;;5093227;27;20276;-43
2022/07/27 06:54:59;;;;;;;7.37;1.53;;;15.20;99.90;;;;;;5108031;27;20196;-44
2022/07/27 06:57:26;;;;;;;5.37;1.73;;;15.20;99.90;;;;;;5104895;27;20707;-44
2022/07/27 06:59:52;;;;;;;1.77;0.90;;;15.20;99.90;;;;;;5113548;27;20193;-42
2022/07/27 07:02:20;;;;;;;4.57;1.10;;;15.30;99.90;;;;;;5103570;28;20658;-42
2022/07/27 07:04:47;;;;;;;4.67;1.07;;;15.30;99.90;;;;;;5082779;27;20207;-43
2022/07/27 07:07:14;;;;;;;7.90;1.20;;;15.40;99.90;;;;;;5099258;27;20228;-42
2022/07/27 07:09:41;;;;;;;2.50;0.73;;;15.40;99.90;;;;;;5105215;27;20223;-42
2022/07/27 07:12:07;;;;;;;5.53;1.20;;;15.40;99.90;;;;;;5119699;27;20200;-42
2022/07/27 07:14:34;;;;;;;3.27;1.17;;;15.40;99.90;;;;;;5100543;27;20266;-43
2022/07/27 07:17:01;;;;;;;6.70;1.57;;;15.50;99.90;;;;;;5101468;27;20296;-42
2022/07/27 07:19:29;;;;;;;3.33;0.90;;;15.60;99.90;;;;;;5100006;27;20275;-46
2022/07/27 07:21:56;;;;;;;7.93;1.23;;;15.60;99.90;;;;;;5108738;27;20212;-45
2022/07/27 07:24:22;;;;;;;4.17;1.13;;;15.80;99.90;;;;;;5105408;27;20207;-45
2022/07/27 07:26:49;;;;;;;3.20;0.90;;;15.90;99.90;;;;;;5108019;27;20217;-46
2022/07/27 07:29:16;;;;;;;7.70;1.23;;;16.10;99.90;;;;;;5106717;27;20193;-44
2022/07/27 07:31:42;;;;;;;5.73;1.33;;;16.20;99.90;;;;;;5109302;27;20204;-42
2022/07/27 07:34:09;;;;;;;4.23;1.17;;;16.20;99.90;;;;;;5111043;27;20719;-42
2022/07/27 07:36:37;;;;;;;7.10;1.30;;;16.20;99.90;;;;;;5095997;27;20216;-43
2022/07/27 07:39:04;;;;;;;2.10;1.10;;;16.20;99.90;;;;;;5107608;27;20193;-43
2022/07/27 07:41:31;;;;;;;2.90;1.30;;;16.20;99.90;;;;;;5101574;27;20205;-45
2022/07/27 07:43:59;;;;;;;2.33;1.00;;;16.10;99.90;;;;;;5112177;27;20201;-47
2022/07/27 07:46:26;;;;;;;5.53;0.87;;;16.10;99.90;;;;;;5110186;27;20236;-45
2022/07/27 07:48:52;;;;;;;5.53;0.97;;;16.10;99.90;;;;;;5104545;27;20201;-45
2022/07/27 07:51:19;;;;;;;7.90;1.47;;;16.10;99.90;;;;;;5096017;27;20676;-44
2022/07/27 07:53:47;;;;;;;3.53;1.00;;;16.20;99.90;;;;;;5097635;27;20205;-43
2022/07/27 07:56:15;;;;;;;8.17;1.00;;;16.20;99.90;;;;;;5100133;27;20197;-43
2022/07/27 07:58:42;;;;;;;2.67;0.80;;;16.20;99.90;;;;;;5111447;27;20246;-43
2022/07/27 08:01:08;;;;;;;4.80;1.10;;;16.20;99.90;;;;;;5106626;27;20181;-45
2022/07/27 08:03:35;;;;;;;4.90;1.20;;;16.20;99.90;;;;;;5114974;27;20202;-45
2022/07/27 08:06:02;;;;;;;3.00;0.97;;;16.10;99.90;;;;;;5116256;27;20238;-43
2022/07/27 08:08:29;;;;;;;4.57;1.00;;;16.10;99.90;;;;;;5099093;27;20297;-43
2022/07/27 08:10:57;;;;;;;2.93;0.97;;;16.00;99.90;;;;;;5101000;27;20254;-44
2022/07/27 08:13:24;;;;;;;5.13;1.00;;;16.10;99.90;;;;;;5109065;27;20197;-43
2022/07/27 08:15:51;;;;;;;6.07;1.77;;;16.10;99.90;;;;;;5110182;27;20552;-43
2022/07/27 08:18:17;;;;;;;1.80;0.77;;;16.20;99.90;;;;;;5110464;27;20207;-43
2022/07/27 08:20:48;;;;;;;4.50;1.20;;;16.30;99.90;;;;;;5109976;27;20224;-43
2022/07/27 08:23:15;;;;;;;1.50;0.63;;;16.30;99.90;;;;;;5100368;27;20212;-42
2022/07/27 08:25:42;;;;;;;4.87;0.80;;;16.40;99.90;;;;;;5111348;27;20212;-42
2022/07/27 08:28:10;;;;;;;4.73;0.90;;;16.50;99.90;;;;;;5108469;27;20246;-42
2022/07/27 08:30:36;;;;;;;5.07;1.20;;;16.50;99.90;;;;;;5113880;27;20200;-44
2022/07/27 08:33:05;;;;;;;3.27;1.00;;;16.50;99.90;;;;;;5097019;27;20251;-42
2022/07/27 08:35:33;;;;;;;3.10;0.90;;;16.50;99.90;;;;;;5104858;27;20203;-45
2022/07/27 08:38:01;;;;;;;4.47;1.60;;;16.50;99.90;;;;;;5097394;27;20778;-42
2022/07/27 08:40:28;;;;;;;5.37;1.30;;;16.60;99.90;;;;;;5100789;27;20212;-47
2022/07/27 08:42:55;;;;;;;3.53;1.63;;;16.60;99.90;;;;;;5103246;27;20688;-42
2022/07/27 08:45:23;;;;;;;6.77;1.30;;;16.70;99.90;;;;;;5106033;28;20200;-42
2022/07/27 08:47:50;;;;;;;2.87;1.13;;;16.90;99.90;;;;;;5103893;28;20279;-42
2022/07/27 08:50:24;;;;;;;6.20;1.50;;;17.00;99.90;;;;;;5111062;28;20185;-41
2022/07/27 08:52:55;;;;;;;2.50;0.80;;;17.10;99.90;;;;;;5109301;27;20304;-43
2022/07/27 08:55:22;;;;;;;4.87;1.13;;;17.20;99.90;;;;;;5094666;28;20313;-42
2022/07/27 08:57:49;;;;;;;9.57;1.63;;;17.30;99.90;;;;;;5102704;28;20220;-45
2022/07/27 09:00:16;;;;;;;4.73;1.20;;;17.40;99.90;;;;;;5110794;27;20189;-41
2022/07/27 09:02:45;;;;;;;6.07;1.43;;;17.50;99.90;;;;;;5104422;28;20216;-41
2022/07/27 09:05:12;;;;;;;3.60;1.33;;;17.60;99.90;;;;;;5110290;28;20191;-44
2022/07/27 09:07:39;;;;;;;5.10;1.13;;;17.80;99.90;;;;;;5109405;28;20225;-41
2022/07/27 09:10:07;;;;;;;3.07;1.23;;;17.80;99.90;;;;;;5094777;28;21773;-46
2022/07/27 09:12:34;;;;;;;6.30;0.90;;;17.70;99.90;;;;;;5109589;28;20223;-42
2022/07/27 09:15:07;;;;;;;3.30;1.10;;;17.60;99.90;;;;;;5108787;28;20204;-45
2022/07/27 09:17:34;;;;;;;2.03;0.80;;;17.50;99.90;;;;;;5112349;27;20219;-41
2022/07/27 09:20:05;;;;;;;5.33;1.00;;;17.40;99.90;;;;;;5100028;27;20928;-47
2022/07/27 09:22:44;;;;;;;4.10;1.07;;;17.40;99.90;;;;;;5113246;27;20197;-42
2022/07/27 09:25:12;;;;;;;3.77;1.07;;;17.40;99.90;;;;;;5107500;28;20209;-42
2022/07/27 09:27:39;;;;;;;3.33;1.23;;;17.40;99.90;;;;;;5091883;27;20296;-43
2022/07/27 09:30:08;;;;;;;2.67;0.73;;;17.40;99.90;;;;;;5100948;28;20196;-41
2022/07/27 09:32:35;;;;;;;2.50;1.00;;;17.40;99.90;;;;;;5108281;28;20204;-41
2022/07/27 09:35:17;;;;;;;1.67;1.03;;;17.40;99.50;;;;;;5103344;28;20901;-44
2022/07/27 09:37:44;;;;;;;1.63;0.67;;;17.40;99.00;;;;;;5109439;28;20224;-43
2022/07/27 09:40:13;;;;;;;2.60;0.90;;;17.50;99.20;;;;;;5102394;27;20263;-44
2022/07/27 09:42:39;;;;;;;3.67;0.63;;;17.60;99.10;;;;;;5099114;27;20212;-42
2022/07/27 09:45:28;;;;;;;3.13;0.80;;;17.60;98.80;;;;;;5105899;27;20866;-43
2022/07/27 09:48:13;;;;;;;5.50;1.10;;;17.70;97.20;;;;;;5109293;27;20282;-42
2022/07/27 09:50:44;;;;;;;2.37;0.73;;;17.70;98.20;;;;;;5116176;27;20216;-47
2022/07/27 09:53:21;;;;;;;1.20;0.70;;;17.60;98.10;;;;;;5116456;27;20204;-47
2022/07/27 09:55:59;;;;;;;4.40;1.03;;;17.60;98.10;;;;;;5108029;27;22054;-43
2022/07/27 09:58:43;;;;;;;4.53;1.10;;;17.50;97.70;;;;;;5103370;27;20560;-43
2022/07/27 10:01:12;;;;;;;4.73;1.33;;;17.50;98.40;;;;;;5100994;27;20193;-43
2022/07/27 10:03:39;;;;;;;3.13;0.80;;;17.60;98.60;;;;;;5110592;27;20204;-41
2022/07/27 10:06:08;;;;;;;2.23;0.80;;;17.60;98.30;;;;;;5105551;28;20681;-44
2022/07/27 10:08:37;;;;;;;2.30;0.70;;;17.70;98.30;;;;;;5107411;27;20306;-44
2022/07/27 10:11:03;;;;;;;2.83;0.70;;;17.80;98.30;;;;;;5107759;27;20201;-42
2022/07/27 10:13:30;;;;;;;3.87;1.23;;;17.80;97.60;;;;;;5097755;27;20212;-42
2022/07/27 10:16:00;;;;;;;3.87;0.80;;;17.90;97.40;;;;;;5106356;27;20196;-41
2022/07/27 10:18:38;;;;;;;2.67;0.70;;;18.10;97.30;;;;;;5114395;27;20684;-43
2022/07/27 10:21:09;;;;;;;3.17;0.80;;;18.20;96.90;;;;;;5111280;27;20188;-46
2022/07/27 10:23:37;;;;;;;3.47;1.00;;;18.20;97.00;;;;;;5112429;27;20201;-40
2022/07/27 10:26:21;;;;;;;1.67;0.80;;;18.30;97.00;;;;;;5118255;27;20619;-43
2022/07/27 10:28:51;;;;;;;3.57;0.90;;;18.60;96.00;;;;;;5093071;27;20228;-45
2022/07/27 10:31:20;;;;;;;2.27;1.00;;;18.80;96.10;;;;;;5110036;27;20197;-45
2022/07/27 10:33:48;;;;;;;2.20;0.80;;;18.80;96.10;;;;;;5103425;27;20208;-43
2022/07/27 10:36:19;;;;;;;2.77;0.93;;;18.60;95.60;;;;;;5114012;27;20199;-42
2022/07/27 10:38:48;;;;;;;3.23;0.80;;;18.50;95.70;;;;;;5105310;27;20276;-46
2022/07/27 10:41:23;;;;;;;3.70;0.87;;;18.30;95.50;;;;;;5115660;27;20197;-43
2022/07/27 10:44:26;;;;;;;3.57;0.90;;;18.40;95.80;;;;;;5094818;27;20204;-42
2022/07/27 10:46:54;;;;;;;2.60;1.10;;;18.40;94.60;;;;;;5103899;27;20220;-42
2022/07/27 10:49:22;;;;;;;3.53;0.77;;;18.50;95.10;;;;;;5101296;27;20216;-41
2022/07/27 10:51:52;;;;;;;3.83;0.70;;;18.40;94.70;;;;;;5112118;27;20692;-41
2022/07/27 10:54:21;;;;;;;3.17;0.97;;;18.50;94.30;;;;;;5110089;27;20220;-41
2022/07/27 10:56:49;;;;;;;3.70;1.10;;;18.60;94.30;;;;;;5109360;27;20208;-43
2022/07/27 10:59:48;;;;;;;3.07;0.93;;;18.70;94.80;;;;;;5115380;27;20189;-42
2022/07/27 11:02:17;;;;;;;6.10;1.03;;;18.60;96.00;;;;;;5113088;27;20193;-42
2022/07/27 11:04:46;;;;;;;3.97;1.20;;;18.50;96.70;;;;;;5103411;27;20852;-42
2022/07/27 11:07:16;;;;;;;4.07;1.23;;;18.50;97.50;;;;;;5114231;27;20212;-47
2022/07/27 11:09:43;;;;;;;2.20;0.90;;;18.50;98.30;;;;;;5110511;27;20967;-44
2022/07/27 11:12:12;;;;;;;3.33;0.90;;;18.50;98.40;;;;;;5108678;27;20224;-42
2022/07/27 11:14:47;;;;;;;4.10;1.10;;;18.30;98.20;;;;;;5103338;27;20276;-42
2022/07/27 11:17:15;;;;;;;6.03;0.90;;;18.20;98.00;;;;;;5099980;27;20635;-44
2022/07/27 11:19:41;;;;;;;2.13;0.90;;;18.30;98.10;;;;;;5099951;27;20196;-42
2022/07/27 11:22:08;;;;;;;7.93;0.97;;;18.30;97.60;;;;;;5111948;27;20201;-44
2022/07/27 11:24:36;;;;;;;3.13;0.90;;;18.20;97.40;;;;;;5103289;27;20204;-44
2022/07/27 11:27:05;;;;;;;5.27;1.10;;;18.10;97.30;;;;;;5104881;27;20225;-41
2022/07/27 11:29:34;;;;;;;6.97;1.13;;;18.10;97.70;;;;;;5105280;27;20221;-45
2022/07/27 11:32:02;;;;;;;4.37;0.90;;;18.20;97.60;;;;;;5097706;27;20288;-43
2022/07/27 11:34:30;;;;;;;3.43;0.77;;;18.20;97.60;;;;;;5109435;27;20201;-44
2022/07/27 11:37:00;;;;;;;5.07;0.70;;;18.20;97.60;;;;;;5123344;27;20213;-45
2022/07/27 11:39:29;;;;;;;2.80;0.73;;;18.20;97.50;;;;;;5104421;27;20220;-42
2022/07/27 11:41:58;;;;;;;1.80;0.60;;;18.20;96.90;;;;;;5113083;27;20205;-43
2022/07/27 11:44:26;;;;;;;5.83;0.97;;;18.30;96.90;;;;;;5108504;27;20189;-44
2022/07/27 11:46:55;;;;;;;2.77;0.80;;;18.30;96.80;;;;;;5100307;27;20220;-41
2022/07/27 11:49:27;;;;;;;2.87;0.90;;;18.30;96.80;;;;;;5106628;27;20217;-43
2022/07/27 11:51:59;;;;;;;2.53;0.60;;;18.40;97.00;;;;;;5115955;27;20790;-45
2022/07/27 11:54:27;;;;;;;3.30;0.90;;;18.30;96.90;;;;;;5122783;27;20665;-43
2022/07/27 11:56:57;;;;;;;2.50;0.87;;;18.20;97.10;;;;;;5106434;27;20212;-43
2022/07/27 11:59:27;;;;;;;4.07;0.70;;;18.10;97.40;;;;;;5107895;27;20332;-42
2022/07/27 12:01:57;;;;;;;4.23;1.60;;;18.00;97.40;;;;;;5104558;27;20692;-43
2022/07/27 12:04:26;;;;;;;5.63;1.30;;;18.00;97.60;;;;;;5095805;27;20280;-41
2022/07/27 12:07:15;;;;;;;5.67;1.10;;;18.00;97.60;;;;;;5113124;27;20223;-43
2022/07/27 12:09:45;;;;;;;1.43;0.60;;;18.00;96.90;;;;;;5107140;27;20220;-42
2022/07/27 12:12:15;;;;;;;6.03;1.10;;;18.00;97.10;;;;;;5108530;27;20877;-44
2022/07/27 12:14:44;;;;;;;1.57;0.60;;;18.00;96.80;;;;;;5104568;27;20206;-42
2022/07/27 12:17:26;;;;;;;3.33;1.40;;;18.10;96.90;;;;;;5095324;27;20213;-43
2022/07/27 12:19:56;;;;;;;1.80;0.63;;;18.00;96.60;;;;;;5111233;27;20201;-45
2022/07/27 12:22:25;;;;;;;5.00;1.50;;;17.90;96.40;;;;;;5108384;27;20251;-46
2022/07/27 12:24:52;;;;;;;9.67;1.70;;;17.90;96.70;;;;;;5114018;27;20192;-42
2022/07/27 12:27:21;;;;;;;3.43;1.00;;;18.00;96.80;;;;;;5110789;27;20208;-42
2022/07/27 12:29:55;;;;;;;3.80;0.87;;;18.10;97.20;;;;;;5105350;27;20776;-43
2022/07/27 12:32:22;;;;;;;3.93;1.17;;;18.30;96.00;;;;;;5093750;27;20907;-42
2022/07/27 12:34:50;;;;;;;2.67;0.80;;;18.20;96.00;;;;;;5098539;27;20629;-45
2022/07/27 12:37:17;;;;;;;3.50;0.70;;;18.20;95.60;;;;;;5101750;27;20208;-44
2022/07/27 12:39:45;;;;;;;2.37;0.73;;;18.20;95.20;;;;;;5105885;27;20299;-42
2022/07/27 12:42:13;;;;;;;3.90;0.77;;;18.30;95.00;;;;;;5112831;27;20211;-46
2022/07/27 12:44:43;;;;;;;1.73;0.80;;;18.30;94.70;;;;;;5110229;27;20201;-42
2022/07/27 12:50:01;;;;;;;4.53;1.10;;;18.40;94.10;;;;;;5095134;28;20216;-42
2022/07/27 12:52:27;;;;;;;3.13;1.00;;;18.40;93.90;;;;;;5105750;28;20822;-43
2022/07/27 12:54:54;;;;;;;2.73;1.10;;;18.40;94.50;;;;;;5110824;28;20193;-42
2022/07/27 12:57:21;;;;;;;3.47;0.70;;;18.40;94.30;;;;;;5111710;28;21022;-42
2022/07/27 12:59:49;;;;;;;2.73;0.87;;;18.40;94.90;;;;;;5101902;28;20204;-43